createdAt,value
2022-08-16T00:01:06.969Z,101277.28
2022-08-16T00:02:13.015Z,101305.41
2022-08-16T00:03:15.483Z,101306.69
2022-08-16T00:04:19.399Z,101308.78
2022-08-16T00:05:24.865Z,101311.66
2022-08-16T00:06:26.688Z,101170.50
2022-08-16T00:07:29.715Z,101189.84
2022-08-16T00:08:37.404Z,101291.91
2022-08-16T00:09:39.499Z,101276.78
2022-08-16T00:10:43.760Z,101243.25
2022-08-16T00:11:47.765Z,101317.31
2022-08-16T00:12:54.944Z,101263.13
2022-08-16T00:13:57.589Z,101283.25
2022-08-16T00:15:06.623Z,101265.84
2022-08-16T00:17:05.388Z,101251.84
2022-08-16T00:17:56.054Z,101293.84
2022-08-16T00:18:58.204Z,101283.63
2022-08-16T00:20:00.234Z,101258.16
2022-08-16T00:21:02.112Z,101288.38
2022-08-16T00:22:06.947Z,101284.00
2022-08-16T00:23:15.814Z,101289.19
2022-08-16T00:24:32.827Z,101273.44
2022-08-16T00:26:35.946Z,101304.16
2022-08-16T00:26:58.843Z,101241.63
2022-08-16T00:28:01.160Z,101268.44
2022-08-16T00:29:04.777Z,101286.47
2022-08-16T00:30:19.603Z,101289.84
2022-08-16T00:31:59.624Z,101294.47
2022-08-16T00:32:57.998Z,101265.13
2022-08-16T00:34:00.043Z,101192.41
2022-08-16T00:35:15.037Z,101305.41
2022-08-16T00:36:17.920Z,101254.59
2022-08-16T00:37:24.602Z,101297.44
2022-08-16T00:38:43.271Z,101263.38
2022-08-16T00:39:57.524Z,101256.34
2022-08-16T00:41:01.510Z,101290.56
2022-08-16T00:42:03.731Z,101260.09
2022-08-16T00:43:19.401Z,101291.19
2022-08-16T00:44:22.630Z,101292.00
2022-08-16T00:45:57.969Z,101284.09
2022-08-16T00:47:08.661Z,101245.03
2022-08-16T00:48:30.334Z,101257.00
2022-08-16T00:49:39.632Z,101178.19
2022-08-16T00:50:47.280Z,101262.28
2022-08-16T00:51:57.076Z,101275.69
2022-08-16T00:52:59.415Z,101264.75
2022-08-16T00:54:01.456Z,101209.28
2022-08-16T00:55:04.501Z,101260.50
2022-08-16T00:56:56.431Z,101148.63
2022-08-16T00:57:59.274Z,101166.03
2022-08-16T00:59:00.495Z,101244.63
2022-08-16T01:00:08.125Z,101280.31
2022-08-16T01:01:12.363Z,101283.22
2022-08-16T01:02:30.217Z,101247.56
2022-08-16T01:03:35.671Z,101288.47
2022-08-16T01:04:38.435Z,101255.25
2022-08-16T01:05:43.410Z,101251.69
2022-08-16T01:06:49.160Z,101241.63
2022-08-16T01:07:53.687Z,101262.81
2022-08-16T01:09:00.213Z,101290.94
2022-08-16T01:10:02.611Z,101219.19
2022-08-16T01:11:06.547Z,101182.41
2022-08-16T01:12:10.893Z,101201.91
2022-08-16T01:13:30.807Z,101255.09
2022-08-16T01:14:39.441Z,101273.59
2022-08-16T01:15:53.649Z,101269.84
2022-08-16T01:16:57.147Z,101178.25
2022-08-16T01:18:00.399Z,101132.28
2022-08-16T01:19:27.799Z,101258.75
2022-08-16T01:20:34.998Z,101270.28
2022-08-16T01:21:53.421Z,101218.25
2022-08-16T01:23:08.527Z,101235.81
2022-08-16T01:24:51.552Z,101267.56
2022-08-16T01:25:41.970Z,101182.91
2022-08-16T01:26:49.478Z,101284.91
2022-08-16T01:27:54.914Z,101147.19
2022-08-16T01:28:59.530Z,101195.44
2022-08-16T01:30:19.911Z,101266.50
2022-08-16T01:31:31.077Z,101256.84
2022-08-16T01:32:36.177Z,101267.31
2022-08-16T01:33:39.482Z,101250.91
2022-08-16T01:34:53.745Z,101109.03
2022-08-16T01:36:11.661Z,101241.47
2022-08-16T01:37:16.225Z,101243.34
2022-08-16T01:38:30.810Z,101258.50
2022-08-16T01:39:35.613Z,101259.16
2022-08-16T01:40:38.623Z,101204.41
2022-08-16T01:41:42.052Z,101252.44
2022-08-16T01:42:49.690Z,101248.03
2022-08-16T01:43:55.853Z,101212.41
2022-08-16T01:45:05.167Z,101242.63
2022-08-16T01:46:29.827Z,101238.22
2022-08-16T01:47:49.249Z,101214.56
2022-08-16T01:48:58.995Z,101234.47
2022-08-16T01:50:42.456Z,101231.75
2022-08-16T01:51:27.180Z,101240.13
2022-08-16T01:52:31.028Z,101173.81
2022-08-16T01:53:53.613Z,101094.44
2022-08-16T01:55:06.661Z,101235.56
2022-08-16T01:56:23.307Z,101217.28
2022-08-16T01:57:28.407Z,101089.66
2022-08-16T01:58:33.418Z,101155.66
2022-08-16T01:59:38.161Z,101235.50
2022-08-16T02:00:41.940Z,101162.22
2022-08-16T02:01:49.853Z,101199.16
2022-08-16T02:02:54.655Z,101151.91
2022-08-16T02:03:58.450Z,101234.22
2022-08-16T02:05:06.383Z,101218.06
2022-08-16T02:06:09.035Z,101175.78
2022-08-16T02:07:13.214Z,101226.38
2022-08-16T02:08:33.224Z,101213.63
2022-08-16T02:09:38.670Z,101233.81
2022-08-16T02:10:41.870Z,101197.25
2022-08-16T02:11:48.871Z,101233.38
2022-08-16T02:12:59.986Z,101159.66
2022-08-16T02:14:03.757Z,101203.72
2022-08-16T02:15:08.944Z,101221.34
2022-08-16T02:16:18.411Z,101204.13
2022-08-16T02:17:21.102Z,101188.63
2022-08-16T02:18:25.029Z,101054.88
2022-08-16T02:19:59.255Z,101194.28
2022-08-16T02:20:53.587Z,101229.19
2022-08-16T02:22:09.205Z,101241.34
2022-08-16T02:23:20.569Z,101230.91
2022-08-16T02:24:31.845Z,101174.41
2022-08-16T02:25:52.077Z,101205.28
2022-08-16T02:26:56.494Z,101111.59
2022-08-16T02:28:00.522Z,101215.78
2022-08-16T02:29:02.718Z,101225.44
2022-08-16T02:30:07.720Z,101178.50
2022-08-16T02:31:13.099Z,101170.75
2022-08-16T02:32:49.065Z,101196.25
2022-08-16T02:33:44.410Z,101188.47
2022-08-16T02:34:59.480Z,101190.22
2022-08-16T02:36:04.687Z,101197.72
2022-08-16T02:37:15.936Z,101211.16
2022-08-16T02:38:23.999Z,101226.25
2022-08-16T02:39:26.233Z,101190.53
2022-08-16T02:40:33.626Z,101180.94
2022-08-16T02:41:39.623Z,101204.75
2022-08-16T02:42:49.569Z,101114.91
2022-08-16T02:43:52.875Z,101188.88
2022-08-16T02:44:54.720Z,101195.31
2022-08-16T02:45:57.616Z,101232.22
2022-08-16T02:46:59.882Z,101207.47
2022-08-16T02:48:29.329Z,101232.47
2022-08-16T02:49:58.542Z,101194.13
2022-08-16T02:50:53.872Z,101231.09
2022-08-16T02:52:10.560Z,101207.78
2022-08-16T02:53:23.337Z,101228.78
2022-08-16T02:54:26.109Z,101231.03
2022-08-16T02:55:41.276Z,101199.31
2022-08-16T02:56:47.946Z,101168.50
2022-08-16T02:57:54.563Z,101205.03
2022-08-16T02:58:56.896Z,101159.91
2022-08-16T03:00:01.212Z,101192.03
2022-08-16T03:01:15.085Z,101163.06
2022-08-16T03:02:31.830Z,101210.91
2022-08-16T03:04:29.257Z,101108.25
2022-08-16T03:05:01.844Z,101170.88
2022-08-16T03:06:04.265Z,101179.00
2022-08-16T03:07:28.778Z,101190.59
2022-08-16T03:08:52.456Z,101178.84
2022-08-16T03:09:54.567Z,101203.00
2022-08-16T03:10:59.362Z,101215.78
2022-08-16T03:12:02.827Z,101217.03
2022-08-16T03:13:12.580Z,101218.06
2022-08-16T03:14:20.823Z,101139.13
2022-08-16T03:15:25.626Z,101193.25
2022-08-16T03:16:38.159Z,101158.41
2022-08-16T03:17:52.955Z,101220.38
2022-08-16T03:18:56.175Z,101205.88
2022-08-16T03:20:00.293Z,101108.63
2022-08-16T03:21:10.258Z,101134.09
2022-08-16T03:22:19.354Z,101182.78
2022-08-16T03:23:35.899Z,101225.81
2022-08-16T03:24:38.287Z,101186.59
2022-08-16T03:25:44.008Z,101153.44
2022-08-16T03:26:46.648Z,101179.03
2022-08-16T03:27:48.479Z,101173.38
2022-08-16T03:28:52.413Z,101201.00
2022-08-16T03:29:55.291Z,101204.75
2022-08-16T03:30:59.230Z,101086.28
2022-08-16T03:32:03.906Z,101145.19
2022-08-16T03:33:07.476Z,101181.72
2022-08-16T03:34:15.664Z,101197.63
2022-08-16T03:35:21.407Z,101223.91
2022-08-16T03:36:30.960Z,101216.78
2022-08-16T03:38:01.840Z,101185.91
2022-08-16T03:39:05.928Z,101202.66
2022-08-16T03:40:31.500Z,101099.59
2022-08-16T03:41:50.396Z,101165.34
2022-08-16T03:43:19.135Z,101225.22
2022-08-16T03:44:43.502Z,101162.22
2022-08-16T03:45:41.025Z,101115.88
2022-08-16T03:46:47.701Z,101171.88
2022-08-16T03:48:10.195Z,101118.78
2022-08-16T03:49:18.123Z,101191.19
2022-08-16T03:50:25.833Z,101198.28
2022-08-16T03:51:30.284Z,101225.19
2022-08-16T03:52:37.921Z,101183.19
2022-08-16T03:54:00.824Z,101219.94
2022-08-16T03:55:05.975Z,101217.84
2022-08-16T03:56:20.912Z,101204.50
2022-08-16T03:57:31.867Z,101207.22
2022-08-16T03:58:39.712Z,101173.44
2022-08-16T03:59:46.880Z,101153.03
2022-08-16T04:00:56.953Z,101163.91
2022-08-16T04:02:07.245Z,101007.13
2022-08-16T04:03:14.961Z,101181.81
2022-08-16T04:04:25.165Z,101180.13
2022-08-16T04:05:37.951Z,101205.31
2022-08-16T04:06:40.889Z,101155.75
2022-08-16T04:07:42.800Z,101176.31
2022-08-16T04:08:44.645Z,101066.97
2022-08-16T04:09:47.212Z,101168.56
2022-08-16T04:10:51.735Z,101173.44
2022-08-16T04:11:54.715Z,101157.72
2022-08-16T04:13:01.921Z,101189.81
2022-08-16T04:14:30.882Z,101096.66
2022-08-16T04:15:29.561Z,101184.44
2022-08-16T04:16:50.156Z,101154.91
2022-08-16T04:18:12.446Z,101127.56
2022-08-16T04:19:16.989Z,101124.63
2022-08-16T04:20:29.512Z,101147.50
2022-08-16T04:21:36.330Z,101101.38
2022-08-16T04:22:49.313Z,101140.38
2022-08-16T04:23:51.992Z,101058.53
2022-08-16T04:24:59.434Z,101111.84
2022-08-16T04:26:07.613Z,101152.13
2022-08-16T04:27:19.529Z,101172.72
2022-08-16T04:28:52.371Z,101156.16
2022-08-16T04:29:46.483Z,101142.94
2022-08-16T04:30:50.736Z,101067.59
2022-08-16T04:31:57.891Z,101163.75
2022-08-16T04:33:07.384Z,101122.63
2022-08-16T04:34:12.498Z,101130.78
2022-08-16T04:35:19.776Z,101167.03
2022-08-16T04:36:23.107Z,101109.94
2022-08-16T04:37:25.564Z,101154.19
2022-08-16T04:38:34.494Z,101102.00
2022-08-16T04:39:46.839Z,101167.25
2022-08-16T04:40:51.587Z,101115.88
2022-08-16T04:41:57.397Z,101132.69
2022-08-16T04:43:01.329Z,101133.09
2022-08-16T04:44:32.589Z,101150.84
2022-08-16T04:45:35.890Z,101109.38
2022-08-16T04:47:01.013Z,101154.09
2022-08-16T04:48:06.210Z,101124.94
2022-08-16T04:49:17.881Z,101152.59
2022-08-16T04:50:30.325Z,101083.97
2022-08-16T04:51:35.776Z,101148.59
2022-08-16T04:52:38.593Z,101143.09
2022-08-16T04:53:41.443Z,101110.16
2022-08-16T04:54:43.749Z,101129.41
2022-08-16T04:55:45.586Z,101138.28
2022-08-16T04:56:48.754Z,101141.63
2022-08-16T04:57:53.790Z,100981.63
2022-08-16T04:58:58.000Z,101144.13
2022-08-16T05:00:31.679Z,101147.50
2022-08-16T05:01:22.054Z,101149.03
2022-08-16T05:02:43.907Z,101157.03
2022-08-16T05:03:59.697Z,101151.75
2022-08-16T05:05:06.539Z,101057.72
2022-08-16T05:06:20.031Z,101047.47
2022-08-16T05:07:57.990Z,101155.16
2022-08-16T05:09:05.043Z,101128.88
2022-08-16T05:10:19.610Z,101175.69
2022-08-16T05:11:31.959Z,101122.41
2022-08-16T05:12:37.570Z,101138.56
2022-08-16T05:13:42.914Z,101099.28
2022-08-16T05:15:02.754Z,101144.66
2022-08-16T05:16:19.757Z,101113.00
2022-08-16T05:17:25.063Z,101151.00
2022-08-16T05:18:31.801Z,101059.13
2022-08-16T05:19:35.923Z,101061.59
2022-08-16T05:21:01.395Z,101185.00
2022-08-16T05:22:04.313Z,101107.00
2022-08-16T05:23:09.243Z,101146.88
2022-08-16T05:24:13.522Z,101026.13
2022-08-16T05:25:16.055Z,101120.88
2022-08-16T05:26:22.840Z,101153.03
2022-08-16T05:27:24.694Z,101152.41
2022-08-16T05:28:37.434Z,101168.03
2022-08-16T05:29:57.019Z,101141.16
2022-08-16T05:31:01.939Z,101140.81
2022-08-16T05:32:32.798Z,101137.44
2022-08-16T05:33:28.506Z,101142.75
2022-08-16T05:34:32.991Z,101103.31
2022-08-16T05:35:34.909Z,101080.06
2022-08-16T05:36:43.993Z,101121.19
2022-08-16T05:37:46.456Z,101088.22
2022-08-16T05:38:50.501Z,101127.94
2022-08-16T05:39:55.266Z,101107.59
2022-08-16T05:40:59.890Z,101161.09
2022-08-16T05:42:07.473Z,101143.03
2022-08-16T05:43:12.556Z,101129.84
2022-08-16T05:44:23.236Z,101169.06
2022-08-16T05:45:27.892Z,101160.69
2022-08-16T05:46:35.020Z,101155.25
2022-08-16T05:47:59.830Z,101090.28
2022-08-16T05:49:09.996Z,101107.50
2022-08-16T05:50:19.089Z,101037.88
2022-08-16T05:51:35.387Z,101091.16
2022-08-16T05:52:44.977Z,101170.41
2022-08-16T05:53:47.283Z,101129.94
2022-08-16T05:55:01.079Z,101148.56
2022-08-16T05:56:07.469Z,101133.97
2022-08-16T05:57:17.294Z,101165.41
2022-08-16T05:58:31.768Z,101142.13
2022-08-16T05:59:36.036Z,101024.16
2022-08-16T06:00:39.584Z,101126.25
2022-08-16T06:01:44.894Z,101047.81
2022-08-16T06:02:48.266Z,101111.72
2022-08-16T06:04:36.519Z,101136.28
2022-08-16T06:05:45.830Z,101152.88
2022-08-16T06:06:55.686Z,101150.97
2022-08-16T06:08:00.079Z,101083.91
2022-08-16T06:09:16.985Z,101087.47
2022-08-16T06:10:31.830Z,101157.28
2022-08-16T06:11:34.675Z,101107.19
2022-08-16T06:12:38.256Z,101137.38
2022-08-16T06:13:43.487Z,101119.34
2022-08-16T06:14:51.395Z,101110.97
2022-08-16T06:15:55.265Z,101114.13
2022-08-16T06:16:59.036Z,101103.22
2022-08-16T06:18:08.447Z,101121.22
2022-08-16T06:19:10.378Z,101023.19
2022-08-16T06:20:25.631Z,101107.19
2022-08-16T06:21:45.574Z,101113.72
2022-08-16T06:23:03.277Z,101154.97
2022-08-16T06:24:54.032Z,101113.28
2022-08-16T06:25:40.043Z,101082.91
2022-08-16T06:26:57.435Z,101093.16
2022-08-16T06:28:08.686Z,101158.97
2022-08-16T06:29:11.786Z,101124.19
2022-08-16T06:30:19.779Z,101143.25
2022-08-16T06:31:24.818Z,101163.13
2022-08-16T06:32:31.104Z,101098.41
2022-08-16T06:33:41.098Z,101112.44
2022-08-16T06:34:56.841Z,101152.25
2022-08-16T06:36:00.700Z,101111.19
2022-08-16T06:37:05.191Z,101141.97
2022-08-16T06:38:32.273Z,101112.03
2022-08-16T06:39:34.386Z,101152.47
2022-08-16T06:40:41.742Z,101060.06
2022-08-16T06:41:51.285Z,101064.44
2022-08-16T06:43:13.005Z,101089.63
2022-08-16T06:44:21.636Z,101089.22
2022-08-16T06:45:31.669Z,101119.78
2022-08-16T06:46:39.312Z,101111.63
2022-08-16T06:47:53.686Z,101127.34
2022-08-16T06:49:02.367Z,101089.22
2022-08-16T06:50:08.313Z,101128.16
2022-08-16T06:51:14.906Z,101118.97
2022-08-16T06:52:57.719Z,101118.09
2022-08-16T06:53:40.977Z,101094.66
2022-08-16T06:54:46.322Z,101107.22
2022-08-16T06:55:55.949Z,101099.06
2022-08-16T06:56:58.808Z,101091.72
2022-08-16T06:58:02.239Z,101147.44
2022-08-16T06:59:11.329Z,101117.28
2022-08-16T07:00:25.081Z,101109.94
2022-08-16T07:01:53.601Z,101106.81
2022-08-16T07:02:59.275Z,101130.25
2022-08-16T07:04:04.573Z,101087.94
2022-08-16T07:05:16.949Z,101122.31
2022-08-16T07:06:32.771Z,101112.66
2022-08-16T07:07:41.231Z,101148.69
2022-08-16T07:08:46.576Z,101131.09
2022-08-16T07:09:51.419Z,101117.69
2022-08-16T07:10:54.569Z,101148.06
2022-08-16T07:11:56.883Z,101124.81
2022-08-16T07:13:08.294Z,101108.06
2022-08-16T07:14:24.543Z,101120.22
2022-08-16T07:15:29.513Z,101027.19
2022-08-16T07:16:31.626Z,101109.53
2022-08-16T07:17:33.954Z,101142.63
2022-08-16T07:18:37.244Z,101095.06
2022-08-16T07:20:03.185Z,101039.94
2022-08-16T07:21:13.109Z,101051.50
2022-08-16T07:22:38.876Z,101138.22
2022-08-16T07:23:46.328Z,101100.75
2022-08-16T07:24:48.816Z,101012.31
2022-08-16T07:25:53.157Z,101145.78
2022-08-16T07:26:56.732Z,101144.94
2022-08-16T07:27:58.542Z,101138.66
2022-08-16T07:29:03.660Z,101125.00
2022-08-16T07:30:39.373Z,101114.78
2022-08-16T07:31:37.984Z,101137.81
2022-08-16T07:32:41.742Z,101086.91
2022-08-16T07:33:54.850Z,101073.72
2022-08-16T07:35:07.059Z,101140.72
2022-08-16T07:36:10.171Z,101112.88
2022-08-16T07:37:16.949Z,101089.84
2022-08-16T07:38:48.241Z,101116.44
2022-08-16T07:39:52.654Z,101131.53
2022-08-16T07:41:00.628Z,101109.75
2022-08-16T07:42:07.050Z,101102.00
2022-08-16T07:43:09.569Z,101110.16
2022-08-16T07:44:16.762Z,101118.97
2022-08-16T07:45:22.760Z,101108.06
2022-08-16T07:46:39.492Z,101113.91
2022-08-16T07:48:11.534Z,101104.50
2022-08-16T07:49:18.112Z,101077.47
2022-08-16T07:50:57.341Z,101103.25
2022-08-16T07:51:43.470Z,101128.59
2022-08-16T07:52:46.105Z,101112.06
2022-08-16T07:54:09.741Z,101127.31
2022-08-16T07:55:18.742Z,101117.69
2022-08-16T07:56:21.396Z,101112.25
2022-08-16T07:57:38.203Z,101123.34
2022-08-16T07:58:59.470Z,101117.28
2022-08-16T08:00:01.772Z,101134.06
2022-08-16T08:01:10.330Z,101123.56
2022-08-16T08:02:20.069Z,101125.44
2022-08-16T08:03:36.151Z,101002.91
2022-08-16T08:04:45.058Z,101060.09
2022-08-16T08:05:48.448Z,101098.84
2022-08-16T08:06:52.361Z,101149.94
2022-08-16T08:07:55.340Z,101147.22
2022-08-16T08:09:00.581Z,101152.91
2022-08-16T08:10:05.767Z,101029.09
2022-08-16T08:11:14.220Z,101065.53
2022-08-16T08:12:31.824Z,101121.91
2022-08-16T08:13:42.218Z,101149.53
2022-08-16T08:14:47.876Z,101099.69
2022-08-16T08:15:53.380Z,101136.97
2022-08-16T08:16:55.908Z,101109.13
2022-08-16T08:18:30.278Z,101135.91
2022-08-16T08:19:26.879Z,101103.69
2022-08-16T08:20:33.830Z,101111.22
2022-08-16T08:22:01.518Z,101136.16
2022-08-16T08:23:08.456Z,101083.16
2022-08-16T08:24:17.852Z,101129.03
2022-08-16T08:25:21.552Z,101118.75
2022-08-16T08:26:25.352Z,101113.72
2022-08-16T08:27:27.699Z,101112.03
2022-08-16T08:28:35.214Z,101108.50
2022-08-16T08:29:42.683Z,101109.53
2022-08-16T08:30:51.297Z,101090.03
2022-08-16T08:32:58.572Z,101072.88
2022-08-16T08:33:28.196Z,101134.44
2022-08-16T08:34:31.186Z,101090.06
2022-08-16T08:35:35.109Z,101143.88
2022-08-16T08:36:37.844Z,101045.81
2022-08-16T08:38:00.209Z,101152.91
2022-08-16T08:39:12.571Z,101115.59
2022-08-16T08:40:15.688Z,101113.72
2022-08-16T08:41:23.603Z,101104.94
2022-08-16T08:42:30.560Z,101092.59
2022-08-16T08:43:36.358Z,101106.59
2022-08-16T08:44:44.061Z,101117.91
2022-08-16T08:45:52.500Z,101094.47
2022-08-16T08:47:00.619Z,101068.06
2022-08-16T08:48:05.951Z,101103.25
2022-08-16T08:49:09.603Z,101125.66
2022-08-16T08:50:31.601Z,101116.03
2022-08-16T08:51:38.354Z,101094.69
2022-08-16T08:52:47.845Z,101023.22
2022-08-16T08:53:58.073Z,101006.66
2022-08-16T08:55:09.091Z,101141.19
2022-08-16T08:56:22.997Z,101140.34
2022-08-16T08:57:34.231Z,101071.22
2022-08-16T08:59:13.502Z,101025.97
2022-08-16T09:00:26.907Z,101094.69
2022-08-16T09:01:36.938Z,101137.22
2022-08-16T09:02:52.084Z,101081.69
2022-08-16T09:03:54.993Z,101078.56
2022-08-16T09:04:57.248Z,101069.53
2022-08-16T09:06:02.366Z,101063.88
2022-08-16T09:07:06.713Z,101100.94
2022-08-16T09:08:11.904Z,101132.38
2022-08-16T09:09:40.946Z,101098.84
2022-08-16T09:10:46.144Z,101091.75
2022-08-16T09:12:06.793Z,101095.50
2022-08-16T09:13:38.244Z,101094.25
2022-08-16T09:14:51.001Z,101088.38
2022-08-16T09:15:58.658Z,101098.44
2022-08-16T09:17:21.624Z,101100.75
2022-08-16T09:18:26.906Z,101086.31
2022-08-16T09:19:41.038Z,101130.72
2022-08-16T09:20:58.478Z,101107.22
2022-08-16T09:22:02.103Z,100996.88
2022-08-16T09:23:04.763Z,101058.25
2022-08-16T09:24:13.541Z,101068.09
2022-08-16T09:25:35.486Z,101123.19
2022-08-16T09:26:45.855Z,101003.16
2022-08-16T09:27:57.937Z,101057.84
2022-08-16T09:29:15.960Z,101055.13
2022-08-16T09:30:34.096Z,101085.88
2022-08-16T09:31:41.135Z,101045.03
2022-08-16T09:32:47.073Z,101003.16
2022-08-16T09:33:52.094Z,101099.28
2022-08-16T09:34:54.170Z,101062.44
2022-08-16T09:36:01.271Z,101084.19
2022-08-16T09:37:03.352Z,101079.19
2022-08-16T09:38:31.480Z,101072.06
2022-08-16T09:39:42.153Z,101086.72
2022-08-16T09:40:49.807Z,101100.53
2022-08-16T09:41:57.135Z,101113.13
2022-08-16T09:42:59.822Z,100967.81
2022-08-16T09:45:10.923Z,101079.81
2022-08-16T09:45:26.280Z,100982.44
2022-08-16T09:46:33.389Z,101065.75
2022-08-16T09:47:56.802Z,100971.16
2022-08-16T09:49:03.452Z,101071.44
2022-08-16T09:50:11.767Z,101055.31
2022-08-16T09:51:14.311Z,101024.53
2022-08-16T09:52:16.638Z,101086.72
2022-08-16T09:53:23.157Z,101077.94
2022-08-16T09:54:32.331Z,101119.00
2022-08-16T09:55:44.459Z,101004.25
2022-08-16T09:56:51.428Z,101063.25
2022-08-16T09:57:55.632Z,101041.50
2022-08-16T09:59:05.018Z,100992.06
2022-08-16T10:00:44.325Z,101102.47
2022-08-16T10:01:34.676Z,101108.13
2022-08-16T10:02:44.117Z,100991.22
2022-08-16T10:04:02.891Z,101033.34
2022-08-16T10:05:06.320Z,101055.72
2022-08-16T10:06:11.192Z,101033.97
2022-08-16T10:07:15.947Z,101028.94
2022-08-16T10:08:25.829Z,100961.09
2022-08-16T10:09:44.702Z,101059.50
2022-08-16T10:11:10.269Z,101079.41
2022-08-16T10:12:31.351Z,101084.84
2022-08-16T10:13:35.427Z,101080.44
2022-08-16T10:14:37.261Z,101045.47
2022-08-16T10:15:55.861Z,101051.13
2022-08-16T10:17:02.448Z,101101.00
2022-08-16T10:18:56.348Z,101104.13
2022-08-16T10:19:31.806Z,101100.56
2022-08-16T10:20:37.906Z,101061.59
2022-08-16T10:21:40.257Z,101108.53
2022-08-16T10:22:43.407Z,101069.97
2022-08-16T10:23:45.949Z,101086.50
2022-08-16T10:24:55.881Z,101005.44
2022-08-16T10:27:17.320Z,101092.16
2022-08-16T10:27:26.794Z,101095.09
2022-08-16T10:28:39.864Z,101100.13
2022-08-16T10:30:01.492Z,101058.25
2022-08-16T10:31:05.843Z,101075.81
2022-08-16T10:32:08.555Z,101093.41
2022-08-16T10:33:12.296Z,101112.31
2022-08-16T10:34:31.709Z,101100.13
2022-08-16T10:35:34.438Z,101100.13
2022-08-16T10:36:54.117Z,101122.56
2022-08-16T10:37:56.333Z,101082.53
2022-08-16T10:38:59.583Z,101091.13
2022-08-16T10:40:02.132Z,101097.59
2022-08-16T10:41:08.439Z,101036.03
2022-08-16T10:42:13.504Z,101019.72
2022-08-16T10:43:18.315Z,101073.75
2022-08-16T10:44:21.187Z,101053.03
2022-08-16T10:45:23.185Z,101105.97
2022-08-16T10:46:39.974Z,101071.84
2022-08-16T10:47:44.198Z,101085.47
2022-08-16T10:48:47.164Z,101102.63
2022-08-16T10:49:50.285Z,101040.88
2022-08-16T10:50:52.322Z,101091.13
2022-08-16T10:52:01.954Z,101083.78
2022-08-16T10:53:18.211Z,101080.84
2022-08-16T10:54:28.595Z,101093.00
2022-08-16T10:55:41.074Z,101100.94
2022-08-16T10:56:52.567Z,101087.97
2022-08-16T10:57:57.424Z,101060.13
2022-08-16T11:00:22.638Z,101114.38
2022-08-16T11:01:43.882Z,101076.66
2022-08-16T11:02:58.969Z,101079.59
2022-08-16T11:04:03.137Z,101030.59
2022-08-16T11:05:25.497Z,101082.72
2022-08-16T11:06:29.288Z,101113.56
2022-08-16T11:07:53.276Z,101074.59
2022-08-16T11:09:21.029Z,101072.47
2022-08-16T11:11:05.003Z,101100.56
2022-08-16T11:12:13.493Z,101090.91
2022-08-16T11:14:24.679Z,101070.81
2022-08-16T11:15:27.438Z,101063.06
2022-08-16T11:19:03.269Z,101060.31
2022-08-16T11:19:15.323Z,101064.72
2022-08-16T11:23:06.449Z,101026.00
2022-08-16T11:24:39.676Z,101081.31
2022-08-16T11:29:12.407Z,101031.44
2022-08-16T11:29:39.277Z,101045.28
2022-08-16T11:30:41.842Z,101092.59
2022-08-16T11:31:45.809Z,100975.09
2022-08-16T11:32:56.244Z,101037.28
2022-08-16T11:33:58.056Z,101072.47
2022-08-16T11:35:13.438Z,101037.94
2022-08-16T11:36:27.565Z,101055.53
2022-08-16T11:38:04.519Z,101063.91
2022-08-16T11:38:57.486Z,101063.69
2022-08-16T11:40:00.420Z,101065.56
2022-08-16T11:41:03.594Z,100951.06
2022-08-16T11:42:23.241Z,100939.97
2022-08-16T11:43:34.623Z,101061.16
2022-08-16T11:44:52.938Z,101051.53
2022-08-16T11:46:07.799Z,101089.06
2022-08-16T11:47:22.516Z,101088.63
2022-08-16T11:48:27.111Z,101084.66
2022-08-16T11:49:29.027Z,101059.09
2022-08-16T11:50:33.600Z,100969.47
2022-08-16T11:51:35.614Z,101084.22
2022-08-16T11:52:38.956Z,101046.94
2022-08-16T11:53:48.340Z,101093.25
2022-08-16T11:54:53.962Z,101041.50
2022-08-16T11:56:00.001Z,101062.00
2022-08-16T11:57:02.042Z,101051.94
2022-08-16T11:58:04.579Z,101049.66
2022-08-16T11:59:06.964Z,100978.69
2022-08-16T12:00:33.833Z,101082.75
2022-08-16T12:01:55.111Z,101067.22
2022-08-16T12:02:58.891Z,101062.22
2022-08-16T12:04:00.797Z,101016.81
2022-08-16T12:05:02.935Z,101057.41
2022-08-16T12:06:25.007Z,101088.00
2022-08-16T12:07:33.372Z,101056.13
2022-08-16T12:08:36.289Z,101065.78
2022-08-16T12:09:43.168Z,101028.31
2022-08-16T12:10:47.110Z,101046.09
2022-08-16T12:11:52.464Z,100953.16
2022-08-16T12:12:55.759Z,101078.13
2022-08-16T12:14:04.547Z,101085.09
2022-08-16T12:15:07.922Z,101042.75
2022-08-16T12:16:11.415Z,101088.63
2022-08-16T12:17:19.623Z,101075.88
2022-08-16T12:18:24.864Z,101086.75
2022-08-16T12:19:33.752Z,101063.47
2022-08-16T12:20:41.160Z,101041.50
2022-08-16T12:21:58.112Z,101061.41
2022-08-16T12:23:01.965Z,101048.59
2022-08-16T12:24:05.824Z,101036.25
2022-08-16T12:25:12.343Z,101072.09
2022-08-16T12:26:14.111Z,101033.53
2022-08-16T12:27:16.552Z,101037.94
2022-08-16T12:28:36.680Z,101050.28
2022-08-16T12:29:39.128Z,101013.84
2022-08-16T12:30:44.742Z,100997.13
2022-08-16T12:32:00.616Z,101038.13
2022-08-16T12:33:10.967Z,101066.00
2022-08-16T12:34:19.782Z,101025.78
2022-08-16T12:35:32.831Z,101042.13
2022-08-16T12:36:35.626Z,101045.06
2022-08-16T12:37:38.724Z,100866.13
2022-08-16T12:38:48.079Z,101053.22
2022-08-16T12:39:51.520Z,101057.19
2022-08-16T12:40:57.034Z,100946.91
2022-08-16T12:41:59.575Z,101029.97
2022-08-16T12:43:06.093Z,100934.75
2022-08-16T12:44:07.892Z,101002.16
2022-08-16T12:45:14.761Z,101047.59
2022-08-16T12:46:16.760Z,101021.16
2022-08-16T12:47:37.828Z,100981.63
2022-08-16T12:48:58.672Z,100904.00
2022-08-16T12:50:01.785Z,101008.41
2022-08-16T12:51:13.611Z,101031.22
2022-08-16T12:52:32.553Z,101051.13
2022-08-16T12:53:39.770Z,101006.94
2022-08-16T12:54:41.953Z,100986.63
2022-08-16T12:55:44.940Z,100977.44
2022-08-16T12:56:47.075Z,100921.13
2022-08-16T12:57:58.328Z,101009.22
2022-08-16T12:59:07.653Z,101038.13
2022-08-16T13:00:26.363Z,100985.78
2022-08-16T13:01:34.119Z,101003.78
2022-08-16T13:02:36.625Z,100944.16
2022-08-16T13:03:49.280Z,101031.44
2022-08-16T13:04:57.613Z,101039.38
2022-08-16T13:05:59.620Z,100907.53
2022-08-16T13:07:04.695Z,101038.38
2022-08-16T13:08:20.219Z,101024.75
2022-08-16T13:09:26.770Z,100978.91
2022-08-16T13:10:38.024Z,100960.91
2022-08-16T13:11:48.340Z,100895.63
2022-08-16T13:12:57.133Z,101006.72
2022-08-16T13:13:59.602Z,101010.69
2022-08-16T13:15:02.427Z,100980.56
2022-08-16T13:16:15.331Z,101003.38
2022-08-16T13:17:29.671Z,100972.84
2022-08-16T13:18:36.005Z,100998.78
2022-08-16T13:20:05.946Z,100956.72
2022-08-16T13:21:00.852Z,101005.69
2022-08-16T13:22:02.816Z,100957.34
2022-08-16T13:23:12.199Z,101026.44